sensor_id;sensor_type;location;lat;lon;timestamp;pressure;altitude;pressure_sealevel;temperature;humidity
62980;BME280;49075;53.988;27.678;2023-02-12T00:01:27;992;;;-4.7;74.1
62980;BME280;49075;53.988;27.678;2023-02-12T00:06:29;992.2;;;-4.6;74.2
62980;BME280;49075;53.988;27.678;2023-02-12T00:11:29;992.2;;;-4.7;73.7
62980;BME280;49075;53.988;27.678;2023-02-12T00:16:20;992.3;;;-4.7;73.6
62980;BME280;49075;53.988;27.678;2023-02-12T00:21:29;992.4;;;-4.9;72.8
62980;BME280;49075;53.988;27.678;2023-02-12T00:26:19;992.6;;;-4.7;73.1
62980;BME280;49075;53.988;27.678;2023-02-12T00:31:29;992.8;;;-4.6;72.8
62980;BME280;49075;53.988;27.678;2023-02-12T00:36:20;992.9;;;-4.5;73.1
62980;BME280;49075;53.988;27.678;2023-02-12T00:41:17;992.9;;;-4.5;72.6
62980;BME280;49075;53.988;27.678;2023-02-12T00:46:29;993.1;;;-4.5;72.8
62980;BME280;49075;53.988;27.678;2023-02-12T00:51:19;993.2;;;-4.6;72.9
62980;BME280;49075;53.988;27.678;2023-02-12T00:56:19;993.3;;;-4.5;72.8
62980;BME280;49075;53.988;27.678;2023-02-12T01:01:19;993.4;;;-4.5;72.2
62980;BME280;49075;53.988;27.678;2023-02-12T01:06:39;993.4;;;-4.5;72
62980;BME280;49075;53.988;27.678;2023-02-12T01:11:41;993.5;;;-4.7;71.6
62980;BME280;49075;53.988;27.678;2023-02-12T01:16:29;993.6;;;-4.6;71.7
62980;BME280;49075;53.988;27.678;2023-02-12T01:22:01;993.7;;;-4.5;71.5
62980;BME280;49075;53.988;27.678;2023-02-12T01:26:19;993.8;;;-4.6;72
62980;BME280;49075;53.988;27.678;2023-02-12T01:31:28;993.8;;;-4.7;71.7
62980;BME280;49075;53.988;27.678;2023-02-12T01:36:37;993.9;;;-4.8;71.2
62980;BME280;49075;53.988;27.678;2023-02-12T01:41:19;994;;;-5;70.4
62980;BME280;49075;53.988;27.678;2023-02-12T01:46:39;994;;;-5;70.3
62980;BME280;49075;53.988;27.678;2023-02-12T01:51:19;994.1;;;-5;70.4
62980;BME280;49075;53.988;27.678;2023-02-12T01:56:29;994.3;;;-5.1;70.9
62980;BME280;49075;53.988;27.678;2023-02-12T02:01:27;994.4;;;-5.1;71.2
62980;BME280;49075;53.988;27.678;2023-02-12T02:06:41;994.5;;;-5.1;71.7
62980;BME280;49075;53.988;27.678;2023-02-12T02:11:19;994.6;;;-5.4;72.5
62980;BME280;49075;53.988;27.678;2023-02-12T02:16:29;994.7;;;-5.4;72.1
62980;BME280;49075;53.988;27.678;2023-02-12T02:21:26;994.8;;;-5.5;71.8
62980;BME280;49075;53.988;27.678;2023-02-12T02:27:01;994.9;;;-5.5;71.7
62980;BME280;49075;53.988;27.678;2023-02-12T02:31:29;995;;;-5.3;71.9
62980;BME280;49075;53.988;27.678;2023-02-12T02:36:39;995;;;-5.3;71.7
62980;BME280;49075;53.988;27.678;2023-02-12T02:41:41;995;;;-5.3;72
62980;BME280;49075;53.988;27.678;2023-02-12T02:46:37;995.1;;;-5.3;72
62980;BME280;49075;53.988;27.678;2023-02-12T02:51:30;995.2;;;-5.1;72.1
62980;BME280;49075;53.988;27.678;2023-02-12T02:56:51;995.4;;;-5.2;72.1
62980;BME280;49075;53.988;27.678;2023-02-12T03:01:17;995.4;;;-5.2;72.7
62980;BME280;49075;53.988;27.678;2023-02-12T03:06:28;995.5;;;-5.2;72.6
62980;BME280;49075;53.988;27.678;2023-02-12T03:11:20;995.5;;;-5.2;72.9
62980;BME280;49075;53.988;27.678;2023-02-12T03:16:40;995.6;;;-5.2;72.9
62980;BME280;49075;53.988;27.678;2023-02-12T03:21:32;995.7;;;-5;72.9
62980;BME280;49075;53.988;27.678;2023-02-12T03:26:33;995.7;;;-5;72.9
62980;BME280;49075;53.988;27.678;2023-02-12T03:31:32;995.8;;;-4.9;73
62980;BME280;49075;53.988;27.678;2023-02-12T03:36:31;996;;;-5;73.2
62980;BME280;49075;53.988;27.678;2023-02-12T03:41:30;996.1;;;-5.2;73.8
62980;BME280;49075;53.988;27.678;2023-02-12T03:46:40;996.1;;;-5.4;74.1
62980;BME280;49075;53.988;27.678;2023-02-12T03:51:30;996.2;;;-5.2;73.8
62980;BME280;49075;53.988;27.678;2023-02-12T03:56:39;996.2;;;-5.3;73.7
62980;BME280;49075;53.988;27.678;2023-02-12T04:01:30;996.3;;;-5.3;73.7
62980;BME280;49075;53.988;27.678;2023-02-12T04:06:27;996.3;;;-5.5;73.9
62980;BME280;49075;53.988;27.678;2023-02-12T04:11:43;996.2;;;-5.6;73.9
62980;BME280;49075;53.988;27.678;2023-02-12T04:16:39;996.3;;;-5.7;73.8
62980;BME280;49075;53.988;27.678;2023-02-12T04:21:21;996.3;;;-5.7;74
62980;BME280;49075;53.988;27.678;2023-02-12T04:26:21;996.4;;;-5.8;74.4
62980;BME280;49075;53.988;27.678;2023-02-12T04:31:19;996.4;;;-5.8;74.2
62980;BME280;49075;53.988;27.678;2023-02-12T04:36:20;996.5;;;-5.9;74.2
62980;BME280;49075;53.988;27.678;2023-02-12T04:41:19;996.6;;;-5.9;74.2
62980;BME280;49075;53.988;27.678;2023-02-12T04:46:39;996.7;;;-5.9;74.1
62980;BME280;49075;53.988;27.678;2023-02-12T04:51:17;996.7;;;-5.8;74.1
62980;BME280;49075;53.988;27.678;2023-02-12T04:57:03;996.8;;;-5.9;74
62980;BME280;49075;53.988;27.678;2023-02-12T05:01:19;996.9;;;-5.9;74.1
62980;BME280;49075;53.988;27.678;2023-02-12T05:06:41;997;;;-6;74.1
62980;BME280;49075;53.988;27.678;2023-02-12T05:11:29;997.2;;;-6;74.2
62980;BME280;49075;53.988;27.678;2023-02-12T05:16:29;997.2;;;-6.1;74.3
62980;BME280;49075;53.988;27.678;2023-02-12T05:21:19;997.2;;;-6.1;74.1
62980;BME280;49075;53.988;27.678;2023-02-12T05:26:41;997.3;;;-6;73.9
62980;BME280;49075;53.988;27.678;2023-02-12T05:31:29;997.4;;;-6;73.9
62980;BME280;49075;53.988;27.678;2023-02-12T05:36:37;997.4;;;-6.1;74
62980;BME280;49075;53.988;27.678;2023-02-12T05:41:29;997.6;;;-6;74
62980;BME280;49075;53.988;27.678;2023-02-12T05:46:29;997.7;;;-5.9;73.8
62980;BME280;49075;53.988;27.678;2023-02-12T05:51:20;997.8;;;-5.9;73.7
62980;BME280;49075;53.988;27.678;2023-02-12T05:56:41;997.9;;;-5.7;73.8
62980;BME280;49075;53.988;27.678;2023-02-12T06:01:18;998;;;-5.7;73.6
62980;BME280;49075;53.988;27.678;2023-02-12T06:06:19;997.9;;;-5.7;73.7
62980;BME280;49075;53.988;27.678;2023-02-12T06:11:19;997.9;;;-5.7;73.2
62980;BME280;49075;53.988;27.678;2023-02-12T06:16:29;998;;;-5.6;73.2
62980;BME280;49075;53.988;27.678;2023-02-12T06:21:29;998;;;-5.7;73.1
62980;BME280;49075;53.988;27.678;2023-02-12T06:26:20;998.1;;;-5.7;73.5
62980;BME280;49075;53.988;27.678;2023-02-12T06:31:20;998.2;;;-5.2;72.8
62980;BME280;49075;53.988;27.678;2023-02-12T06:36:38;998.2;;;-2.7;70
62980;BME280;49075;53.988;27.678;2023-02-12T06:41:29;998.3;;;-0.6;64.5
62980;BME280;49075;53.988;27.678;2023-02-12T06:46:19;998.3;;;0.8;63.7
62980;BME280;49075;53.988;27.678;2023-02-12T06:51:19;998.3;;;1.3;58.9
62980;BME280;49075;53.988;27.678;2023-02-12T06:56:29;998.5;;;1.6;59.9
62980;BME280;49075;53.988;27.678;2023-02-12T07:01:39;998.5;;;1.4;58.6
62980;BME280;49075;53.988;27.678;2023-02-12T07:06:29;998.5;;;1.6;60
62980;BME280;49075;53.988;27.678;2023-02-12T07:11:31;998.5;;;2.6;57.1
62980;BME280;49075;53.988;27.678;2023-02-12T07:16:29;998.6;;;3.8;56.2
62980;BME280;49075;53.988;27.678;2023-02-12T07:21:19;998.7;;;4.9;53.9
62980;BME280;49075;53.988;27.678;2023-02-12T07:26:17;998.7;;;5.4;53.4
62980;BME280;49075;53.988;27.678;2023-02-12T07:31:19;998.7;;;6.2;50.5
62980;BME280;49075;53.988;27.678;2023-02-12T07:36:30;998.7;;;6.7;51.5
62980;BME280;49075;53.988;27.678;2023-02-12T07:41:20;998.7;;;7.1;47.5
62980;BME280;49075;53.988;27.678;2023-02-12T07:46:20;998.8;;;7.7;49.2
62980;BME280;49075;53.988;27.678;2023-02-12T07:51:29;998.8;;;8.4;48.4
62980;BME280;49075;53.988;27.678;2023-02-12T07:56:27;998.8;;;8.7;44
62980;BME280;49075;53.988;27.678;2023-02-12T08:01:30;999;;;9;46.2
62980;BME280;49075;53.988;27.678;2023-02-12T08:06:30;999.1;;;9.2;43.2
62980;BME280;49075;53.988;27.678;2023-02-12T08:11:19;999.1;;;9.4;44.8
62980;BME280;49075;53.988;27.678;2023-02-12T08:16:18;999.1;;;9.8;41.7
62980;BME280;49075;53.988;27.678;2023-02-12T08:21:20;999.1;;;10.3;42.9
62980;BME280;49075;53.988;27.678;2023-02-12T08:26:19;999.1;;;10.3;42.3
62980;BME280;49075;53.988;27.678;2023-02-12T08:31:30;999.1;;;10.6;40.7
62980;BME280;49075;53.988;27.678;2023-02-12T08:36:41;999.1;;;10.9;38.5
62980;BME280;49075;53.988;27.678;2023-02-12T08:41:29;999.2;;;11;39.7
62980;BME280;49075;53.988;27.678;2023-02-12T08:46:19;999.2;;;11.9;37.4
62980;BME280;49075;53.988;27.678;2023-02-12T08:51:20;999.2;;;12.3;37.4
62980;BME280;49075;53.988;27.678;2023-02-12T08:56:39;999.2;;;12.7;35.8
62980;BME280;49075;53.988;27.678;2023-02-12T09:01:30;999.3;;;13;36.4
62980;BME280;49075;53.988;27.678;2023-02-12T09:06:20;999.3;;;12.8;34
62980;BME280;49075;53.988;27.678;2023-02-12T09:11:29;999.3;;;12.6;35.8
62980;BME280;49075;53.988;27.678;2023-02-12T09:16:39;999.2;;;13.1;33.8
62980;BME280;49075;53.988;27.678;2023-02-12T09:21:29;999.3;;;12.8;34.4
62980;BME280;49075;53.988;27.678;2023-02-12T09:26:29;999.3;;;13.5;33.2
62980;BME280;49075;53.988;27.678;2023-02-12T09:31:30;999.3;;;13.2;32.5
62980;BME280;49075;53.988;27.678;2023-02-12T09:36:29;999.4;;;13.7;32.6
62980;BME280;49075;53.988;27.678;2023-02-12T09:41:23;999.4;;;13.9;32.8
62980;BME280;49075;53.988;27.678;2023-02-12T09:46:44;999.4;;;14.1;31.6
62980;BME280;49075;53.988;27.678;2023-02-12T09:51:19;999.5;;;14.5;32
62980;BME280;49075;53.988;27.678;2023-02-12T09:56:43;999.6;;;15.1;30.7
62980;BME280;49075;53.988;27.678;2023-02-12T10:01:39;999.7;;;14.9;30
62980;BME280;49075;53.988;27.678;2023-02-12T10:06:20;999.8;;;14.7;29.8
62980;BME280;49075;53.988;27.678;2023-02-12T10:11:38;999.8;;;14.5;30.8
62980;BME280;49075;53.988;27.678;2023-02-12T10:16:42;999.8;;;14.7;30.5
62980;BME280;49075;53.988;27.678;2023-02-12T10:21:32;999.8;;;14.7;29.8
62980;BME280;49075;53.988;27.678;2023-02-12T10:26:29;999.7;;;15.2;30.5
62980;BME280;49075;53.988;27.678;2023-02-12T10:31:18;999.7;;;15.2;28.7
62980;BME280;49075;53.988;27.678;2023-02-12T10:36:31;999.7;;;15.3;29.8
62980;BME280;49075;53.988;27.678;2023-02-12T10:41:31;999.8;;;15.9;28
62980;BME280;49075;53.988;27.678;2023-02-12T10:46:19;999.8;;;16.4;29.3
62980;BME280;49075;53.988;27.678;2023-02-12T10:51:47;999.9;;;16.5;28.8
62980;BME280;49075;53.988;27.678;2023-02-12T10:56:20;1000;;;15.8;27.5
62980;BME280;49075;53.988;27.678;2023-02-12T11:01:19;999.9;;;15.6;27.9
62980;BME280;49075;53.988;27.678;2023-02-12T11:06:20;999.9;;;15.8;28.5
62980;BME280;49075;53.988;27.678;2023-02-12T11:11:30;1000;;;16.3;27.9
62980;BME280;49075;53.988;27.678;2023-02-12T11:16:42;1000;;;16.1;28.1
62980;BME280;49075;53.988;27.678;2023-02-12T11:21:21;1000;;;15.3;29.1
62980;BME280;49075;53.988;27.678;2023-02-12T11:26:22;1000;;;15.9;28.3
62980;BME280;49075;53.988;27.678;2023-02-12T11:31:25;1000;;;16.3;28.5
62980;BME280;49075;53.988;27.678;2023-02-12T11:36:32;999.9;;;15.4;27.1
62980;BME280;49075;53.988;27.678;2023-02-12T11:41:51;999.9;;;15.3;28.8
62980;BME280;49075;53.988;27.678;2023-02-12T11:46:19;999.8;;;15.2;28.7
62980;BME280;49075;53.988;27.678;2023-02-12T11:51:20;999.8;;;15.1;28.7
62980;BME280;49075;53.988;27.678;2023-02-12T11:56:19;999.7;;;14.6;27.5
62980;BME280;49075;53.988;27.678;2023-02-12T12:01:37;999.6;;;14.1;28.9
62980;BME280;49075;53.988;27.678;2023-02-12T12:06:21;999.6;;;13.4;28.3
62980;BME280;49075;53.988;27.678;2023-02-12T12:11:45;999.7;;;12.9;29.7
62980;BME280;49075;53.988;27.678;2023-02-12T12:16:21;999.7;;;11.8;29.2
62980;BME280;49075;53.988;27.678;2023-02-12T12:21:41;999.9;;;10.6;31.5
62980;BME280;49075;53.988;27.678;2023-02-12T12:26:20;999.9;;;9.8;31.8
62980;BME280;49075;53.988;27.678;2023-02-12T12:31:32;1000;;;8.4;33
62980;BME280;49075;53.988;27.678;2023-02-12T12:36:28;999.9;;;7;33.9
62980;BME280;49075;53.988;27.678;2023-02-12T12:41:34;1000;;;6;35.9
62980;BME280;49075;53.988;27.678;2023-02-12T12:46:22;1000;;;5.5;36.3
62980;BME280;49075;53.988;27.678;2023-02-12T12:51:31;1000;;;4.8;37.6
62980;BME280;49075;53.988;27.678;2023-02-12T12:56:21;1000.1;;;4.4;38.4
62980;BME280;49075;53.988;27.678;2023-02-12T13:01:45;1000;;;4.1;39
62980;BME280;49075;53.988;27.678;2023-02-12T13:06:31;999.9;;;3.7;40
62980;BME280;49075;53.988;27.678;2023-02-12T13:11:38;999.8;;;3.3;41.5
62980;BME280;49075;53.988;27.678;2023-02-12T13:16:20;999.8;;;3.1;42.4
62980;BME280;49075;53.988;27.678;2023-02-12T13:21:32;999.9;;;2.6;43.6
62980;BME280;49075;53.988;27.678;2023-02-12T13:26:32;999.9;;;2.5;44
62980;BME280;49075;53.988;27.678;2023-02-12T13:31:20;1000;;;2.2;45
62980;BME280;49075;53.988;27.678;2023-02-12T13:36:19;1000;;;2.1;45.1
62980;BME280;49075;53.988;27.678;2023-02-12T13:41:19;1000;;;2;45.6
62980;BME280;49075;53.988;27.678;2023-02-12T13:46:22;1000;;;1.9;45.9
62980;BME280;49075;53.988;27.678;2023-02-12T13:51:20;1000.1;;;1.7;46.1
62980;BME280;49075;53.988;27.678;2023-02-12T13:56:41;1000.2;;;1.5;46.8
62980;BME280;49075;53.988;27.678;2023-02-12T14:01:50;1000.1;;;1.4;46.8
62980;BME280;49075;53.988;27.678;2023-02-12T14:06:29;1000.2;;;1.3;47.6
62980;BME280;49075;53.988;27.678;2023-02-12T14:11:20;1000.2;;;1.1;47.7
62980;BME280;49075;53.988;27.678;2023-02-12T14:16:53;1000.2;;;1;48
62980;BME280;49075;53.988;27.678;2023-02-12T14:26:41;1000.2;;;0.8;48.8
62980;BME280;49075;53.988;27.678;2023-02-12T14:31:20;1000.2;;;0.7;48.9
62980;BME280;49075;53.988;27.678;2023-02-12T14:36:44;1000.2;;;0.6;49.4
62980;BME280;49075;53.988;27.678;2023-02-12T14:41:41;1000.3;;;0.6;49.5
62980;BME280;49075;53.988;27.678;2023-02-12T14:46:46;1000.4;;;0.5;49.8
62980;BME280;49075;53.988;27.678;2023-02-12T14:51:21;1000.4;;;0.4;50.2
62980;BME280;49075;53.988;27.678;2023-02-12T14:56:43;1000.4;;;0.3;50.8
62980;BME280;49075;53.988;27.678;2023-02-12T15:01:41;1000.4;;;0.2;50.8
62980;BME280;49075;53.988;27.678;2023-02-12T15:06:42;1000.3;;;0;51.3
62980;BME280;49075;53.988;27.678;2023-02-12T15:11:21;1000.4;;;-0.1;51.2
62980;BME280;49075;53.988;27.678;2023-02-12T15:16:44;1000.5;;;-0.2;51.4
62980;BME280;49075;53.988;27.678;2023-02-12T15:21:19;1000.5;;;-0.5;51.7
62980;BME280;49075;53.988;27.678;2023-02-12T15:26:19;1000.6;;;-0.8;52.3
62980;BME280;49075;53.988;27.678;2023-02-12T15:31:20;1000.6;;;-0.9;52.1
62980;BME280;49075;53.988;27.678;2023-02-12T15:36:20;1000.5;;;-1.1;52.8
62980;BME280;49075;53.988;27.678;2023-02-12T15:41:35;1000.5;;;-1.2;52.5
62980;BME280;49075;53.988;27.678;2023-02-12T15:46:52;1000.5;;;-1.4;53.1
62980;BME280;49075;53.988;27.678;2023-02-12T15:51:43;1000.6;;;-1.4;53.4
62980;BME280;49075;53.988;27.678;2023-02-12T15:56:29;1000.6;;;-1.5;53.8
62980;BME280;49075;53.988;27.678;2023-02-12T16:01:32;1000.6;;;-1.4;53.9
62980;BME280;49075;53.988;27.678;2023-02-12T16:06:31;1000.5;;;-1.6;55.2
62980;BME280;49075;53.988;27.678;2023-02-12T16:11:20;1000.5;;;-1.6;55
62980;BME280;49075;53.988;27.678;2023-02-12T16:16:19;1000.6;;;-1.7;56
62980;BME280;49075;53.988;27.678;2023-02-12T16:22:05;1000.6;;;-1.7;56.1
62980;BME280;49075;53.988;27.678;2023-02-12T16:26:29;1000.6;;;-1.7;57.2
62980;BME280;49075;53.988;27.678;2023-02-12T16:31:19;1000.7;;;-1.7;56.6
62980;BME280;49075;53.988;27.678;2023-02-12T16:36:30;1000.6;;;-1.9;58.3
62980;BME280;49075;53.988;27.678;2023-02-12T16:41:20;1000.6;;;-1.9;57.5
62980;BME280;49075;53.988;27.678;2023-02-12T16:46:31;1000.6;;;-2;58.4
62980;BME280;49075;53.988;27.678;2023-02-12T16:51:30;1000.6;;;-2;58.1
62980;BME280;49075;53.988;27.678;2023-02-12T16:56:30;1000.5;;;-2;58.7
62980;BME280;49075;53.988;27.678;2023-02-12T17:01:30;1000.4;;;-1.9;57.9
62980;BME280;49075;53.988;27.678;2023-02-12T17:06:20;1000.3;;;-2;58.6
62980;BME280;49075;53.988;27.678;2023-02-12T17:12:05;1000.2;;;-2;58.2
62980;BME280;49075;53.988;27.678;2023-02-12T17:16:29;1000.1;;;-2.1;59
62980;BME280;49075;53.988;27.678;2023-02-12T17:21:29;1000.1;;;-2;58.4
62980;BME280;49075;53.988;27.678;2023-02-12T17:26:19;1000.2;;;-2;58.6
62980;BME280;49075;53.988;27.678;2023-02-12T17:31:53;1000.1;;;-2;58.6
62980;BME280;49075;53.988;27.678;2023-02-12T17:36:29;1000;;;-2.1;58.8
62980;BME280;49075;53.988;27.678;2023-02-12T17:41:19;999.9;;;-2.1;59.4
62980;BME280;49075;53.988;27.678;2023-02-12T17:46:27;999.9;;;-2.1;59
62980;BME280;49075;53.988;27.678;2023-02-12T17:51:19;999.9;;;-2.1;59.4
62980;BME280;49075;53.988;27.678;2023-02-12T17:56:29;999.8;;;-2.1;59.2
62980;BME280;49075;53.988;27.678;2023-02-12T18:01:29;999.8;;;-2.2;59.9
62980;BME280;49075;53.988;27.678;2023-02-12T18:06:29;999.7;;;-2.2;59.5
62980;BME280;49075;53.988;27.678;2023-02-12T18:11:19;999.8;;;-2.3;60.2
62980;BME280;49075;53.988;27.678;2023-02-12T18:16:19;999.8;;;-2.3;59.8
62980;BME280;49075;53.988;27.678;2023-02-12T18:21:29;999.7;;;-2.2;59.7
62980;BME280;49075;53.988;27.678;2023-02-12T18:26:41;999.7;;;-2.3;60.3
62980;BME280;49075;53.988;27.678;2023-02-12T18:31:19;999.6;;;-2.2;59.9
62980;BME280;49075;53.988;27.678;2023-02-12T18:36:31;999.6;;;-2.2;60.3
62980;BME280;49075;53.988;27.678;2023-02-12T18:41:20;999.4;;;-2.3;60.4
62980;BME280;49075;53.988;27.678;2023-02-12T18:46:20;999.3;;;-2.4;60.8
62980;BME280;49075;53.988;27.678;2023-02-12T18:51:29;999.3;;;-2.4;61
62980;BME280;49075;53.988;27.678;2023-02-12T18:56:42;999.2;;;-2.5;61.3
62980;BME280;49075;53.988;27.678;2023-02-12T19:01:49;999.2;;;-2.4;61.2
62980;BME280;49075;53.988;27.678;2023-02-12T19:06:19;999.1;;;-2.5;61.8
62980;BME280;49075;53.988;27.678;2023-02-12T19:11:52;999.1;;;-2.6;61.9
62980;BME280;49075;53.988;27.678;2023-02-12T19:16:31;999;;;-2.6;62.2
62980;BME280;49075;53.988;27.678;2023-02-12T19:21:41;999;;;-2.6;61.8
62980;BME280;49075;53.988;27.678;2023-02-12T19:26:19;998.9;;;-2.5;62.1
62980;BME280;49075;53.988;27.678;2023-02-12T19:31:20;998.9;;;-2.5;61.6
62980;BME280;49075;53.988;27.678;2023-02-12T19:36:42;998.8;;;-2.6;62.3
62980;BME280;49075;53.988;27.678;2023-02-12T19:41:29;998.7;;;-2.6;62.1
62980;BME280;49075;53.988;27.678;2023-02-12T19:46:21;998.7;;;-2.5;62.5
62980;BME280;49075;53.988;27.678;2023-02-12T19:51:19;998.8;;;-2.5;62.1
62980;BME280;49075;53.988;27.678;2023-02-12T19:56:19;998.8;;;-2.4;62.3
62980;BME280;49075;53.988;27.678;2023-02-12T20:01:19;998.7;;;-2.3;62.1
62980;BME280;49075;53.988;27.678;2023-02-12T20:06:41;998.7;;;-2.3;62.5
62980;BME280;49075;53.988;27.678;2023-02-12T20:11:20;998.7;;;-2.2;62.1
62980;BME280;49075;53.988;27.678;2023-02-12T20:16:41;998.6;;;-2.2;62.5
62980;BME280;49075;53.988;27.678;2023-02-12T20:21:41;998.5;;;-2.2;62.5
62980;BME280;49075;53.988;27.678;2023-02-12T20:26:19;998.5;;;-2.3;62.7
62980;BME280;49075;53.988;27.678;2023-02-12T20:31:30;998.5;;;-2.3;62.7
62980;BME280;49075;53.988;27.678;2023-02-12T20:36:29;998.4;;;-2.2;62.7
62980;BME280;49075;53.988;27.678;2023-02-12T20:41:29;998.3;;;-2.1;62.7
62980;BME280;49075;53.988;27.678;2023-02-12T20:46:43;998.2;;;-2.1;62.5
62980;BME280;49075;53.988;27.678;2023-02-12T20:51:19;998.2;;;-2.1;62.9
62980;BME280;49075;53.988;27.678;2023-02-12T20:56:30;998.3;;;-2;62.6
62980;BME280;49075;53.988;27.678;2023-02-12T21:01:41;998.2;;;-2;62.4
62980;BME280;49075;53.988;27.678;2023-02-12T21:07:03;998.1;;;-2;62.6
62980;BME280;49075;53.988;27.678;2023-02-12T21:11:31;998;;;-2;62.5
62980;BME280;49075;53.988;27.678;2023-02-12T21:16:41;998;;;-1.9;62.6
62980;BME280;49075;53.988;27.678;2023-02-12T21:21:30;998;;;-1.9;62.3
62980;BME280;49075;53.988;27.678;2023-02-12T21:26:20;997.8;;;-1.8;62.4
62980;BME280;49075;53.988;27.678;2023-02-12T21:31:30;997.8;;;-1.8;62.2
62980;BME280;49075;53.988;27.678;2023-02-12T21:36:31;997.8;;;-1.8;62.4
62980;BME280;49075;53.988;27.678;2023-02-12T21:41:30;997.7;;;-1.8;62.2
62980;BME280;49075;53.988;27.678;2023-02-12T21:46:19;997.7;;;-1.8;62.3
62980;BME280;49075;53.988;27.678;2023-02-12T21:51:33;997.8;;;-1.8;62.3
62980;BME280;49075;53.988;27.678;2023-02-12T21:56:19;997.8;;;-1.8;62.2
62980;BME280;49075;53.988;27.678;2023-02-12T22:01:28;997.7;;;-1.8;62.3
62980;BME280;49075;53.988;27.678;2023-02-12T22:06:19;997.7;;;-1.7;62.1
62980;BME280;49075;53.988;27.678;2023-02-12T22:11:29;997.7;;;-1.8;62.2
62980;BME280;49075;53.988;27.678;2023-02-12T22:16:29;997.6;;;-1.8;62.2
62980;BME280;49075;53.988;27.678;2023-02-12T22:21:20;997.6;;;-1.7;62
62980;BME280;49075;53.988;27.678;2023-02-12T22:26:41;997.5;;;-1.6;61.9
62980;BME280;49075;53.988;27.678;2023-02-12T22:31:49;997.5;;;-1.7;62
62980;BME280;49075;53.988;27.678;2023-02-12T22:36:21;997.3;;;-1.7;61.9
62980;BME280;49075;53.988;27.678;2023-02-12T22:41:19;997.2;;;-1.6;61.9
62980;BME280;49075;53.988;27.678;2023-02-12T22:46:19;997;;;-1.6;61.9
62980;BME280;49075;53.988;27.678;2023-02-12T22:51:31;997;;;-1.6;61.9
62980;BME280;49075;53.988;27.678;2023-02-12T22:56:19;997;;;-1.6;62
62980;BME280;49075;53.988;27.678;2023-02-12T23:01:19;996.9;;;-1.6;62.1
62980;BME280;49075;53.988;27.678;2023-02-12T23:06:20;996.9;;;-1.8;62.5
62980;BME280;49075;53.988;27.678;2023-02-12T23:11:32;996.7;;;-1.8;62.7
62980;BME280;49075;53.988;27.678;2023-02-12T23:16:19;996.7;;;-1.8;62.8
62980;BME280;49075;53.988;27.678;2023-02-12T23:21:29;996.8;;;-1.7;62.9
62980;BME280;49075;53.988;27.678;2023-02-12T23:26:19;996.8;;;-1.8;63
62980;BME280;49075;53.988;27.678;2023-02-12T23:31:19;996.7;;;-1.8;63.1
62980;BME280;49075;53.988;27.678;2023-02-12T23:36:31;996.7;;;-1.7;63.1
62980;BME280;49075;53.988;27.678;2023-02-12T23:41:29;996.6;;;-1.8;63.6
62980;BME280;49075;53.988;27.678;2023-02-12T23:46:29;996.5;;;-1.8;63.8
62980;BME280;49075;53.988;27.678;2023-02-12T23:51:19;996.4;;;-1.8;64
62980;BME280;49075;53.988;27.678;2023-02-12T23:56:19;996.3;;;-1.9;64.6
